This is the latest recevied weather packets stored in our database for station/object N8ASV. If no packets are shown the sender has not sent any weather packets the latest 10 day(s).
| Time | Temp. | Humidity | Pressure | Rain* | Wind** | Luminosity | Snow |
|---|---|---|---|---|---|---|---|
| 1778165417 | 12.78° C | 51% | 1014 hPa | 0 mm | - | - | - |
| 1778163617 | 12.22° C | 51% | 1014.1 hPa | 0 mm | - | - | - |
| 1778160016 | 10.56° C | 53% | 1014.1 hPa | 0 mm | - | - | - |
| 1778158216 | 9.44° C | 67% | 1014 hPa | 0 mm | - | - | - |
| 1778155816 | 5.56° C | 94% | 1014.1 hPa | 0 mm | - | - | - |
| 1778154616 | 3.33° C | 93% | 1014.1 hPa | 0 mm | - | - | - |
| 1778143857 | 3.89° C | 92% | 1013.2 hPa | 0 mm | - | - | - |
| 1778140237 | 3.89° C | 91% | 1012.9 hPa | 0 mm | - | - | - |
| 1778137858 | 3.89° C | 91% | 1012.9 hPa | 0 mm | - | - | - |
| 1778133017 | 5° C | 91% | 1013.2 hPa | 0 mm | - | - | - |
| 1778131817 | 5.56° C | 90% | 1013.1 hPa | 0 mm | - | - | - |
| 1778130617 | 5.56° C | 90% | 1013.1 hPa | 0 mm | - | - | - |
| 1778125216 | 6.67° C | 88% | 1013.2 hPa | 0 mm | - | - | - |
| 1778124616 | 7.22° C | 88% | 1013.1 hPa | 0 mm | - | - | - |
| 1778122216 | 7.78° C | 88% | 1013.1 hPa | 0 mm | - | - | - |
| 1778121616 | 7.78° C | 88% | 1013.1 hPa | 0 mm | - | - | - |
| 1778120416 | 8.33° C | 86% | 1013 hPa | 0 mm | - | - | - |
| 1778119816 | 8.33° C | 85% | 1012.8 hPa | 0 mm | - | - | - |
| 1778119216 | 8.89° C | 85% | 1012.7 hPa | 0 mm | - | - | - |
| 1778111458 | 13.33° C | 62% | 1011.7 hPa | 0 mm | - | - | - |
| 1778110817 | 13.89° C | 62% | 1011.6 hPa | 0 mm | - | - | - |
| 1778105417 | 14.44° C | 60% | 1011.7 hPa | 0 mm | - | - | - |
| 1778104817 | 14.44° C | 57% | 1011.8 hPa | 0 mm | - | - | - |
| 1778101217 | 15° C | 59% | 1011.4 hPa | 0 mm | - | - | - |
| 1778097616 | 14.44° C | 58% | 1011.6 hPa | 0 mm | - | - | - |
* Rain latest hour (hover to see other rain measurements)
** Current wind speed in m/s (hover to see current wind gust speed)